• Join FlightAware (Why Join?)
  • Login
  • US Flag 
08:02AM EDT


 

Airport Tracker/Info


-or-


 

Live Flight TrackerFlight Track Log ✈ UAL1020 ✈ 20-Oct-2013 ✈ KORD - KIAH

Flight Track Log - Related Links

Times and Time Zones

All times are in EDT time to prevent confusion due to time zone crossing. See the UAL1020 flight status page for this flight to view local times or setup timezone preferences in your user account.

Time Position Orientation Groundspeed Altitude Reporting Facility
EDT Latitude Longitude Course Direction KTS MPH feet Rate Location/Type
12:20PM 41.9690 -87.9100 270° West 146 168  Level FlightAware
12:21PM 41.9620 -87.9470 256° West 173 199 2,200 3,180 Climbing FlightAware
12:21PM 41.9570 -87.9510 211° Southwest 183 211 2,400 1,740 Climbing FlightAware
12:21PM 41.9480 -87.9530 189° South 196 226 2,700 2,220 Climbing FlightAware
12:21PM 41.9280 -87.9510 176° South 218 251 3,500 2,400 Climbing FlightAware
12:22PM 41.9080 -87.9480 174° South 233 268 4,300 2,220 Climbing FlightAware
12:22PM 41.8850 -87.9430 171° South 253 291 5,000 1,200 Climbing FlightAware
12:22PM 41.8610 -87.9390 173° South 257 296 5,100 120 Climbing FlightAware
12:23PM 41.8360 -87.9340 172° South 264 304 5,100 1,740 Level FlightAware
12:23PM 41.8100 -87.9300 173° South 262 302 6,400 3,480 Climbing FlightAware
12:24PM 41.7710 -87.9400 191° South 251 289 8,400 3,300 Climbing FlightAware
12:24PM 41.7460 -87.9600 211° Southwest 260 299 9,600 3,000 Climbing FlightAware
12:25PM 41.7140 -87.9860 211° Southwest 267 307 11,100 2,880 Climbing FlightAware
12:25PM 41.6730 -88.0190 211° Southwest 277 319 12,900 2,640 Climbing FlightAware
12:26PM 41.6510 -88.0290 199° South 289 333 13,700 1,560 Climbing FlightAware
12:26PM 41.5960 -88.0360 185° South 333 383 14,400 1,560 Climbing FlightAware
12:27PM 41.5400 -88.0500 191° South 352 405 15,600 2,100 Climbing FlightAware
12:27PM 41.4830 -88.0640 190° South 365 420 16,900 2,340 Climbing FlightAware
12:28PM 41.4320 -88.0770 191° South 371 427 18,200 2,520 Climbing FlightAware
12:29PM 41.3680 -88.0920 190° South 377 434 19,800 2,460 Climbing FlightAware
12:29PM 41.3000 -88.1090 191° South 386 444 21,300 2,220 Climbing FlightAware
12:30PM 41.2470 -88.1220 190° South 391 450 22,400 2,040 Climbing FlightAware
12:30PM 41.1830 -88.1380 191° South 395 455 23,600 2,040 Climbing FlightAware
12:31PM 41.1300 -88.1510 190° South 400 460 24,600 1,680 Climbing FlightAware
12:31PM 41.0640 -88.1770 197° South 400 460 25,500 1,440 Climbing FlightAware
12:32PM 41.0040 -88.2170 207° Southwest 403 464 26,400 1,500 Climbing FlightAware
12:33PM 40.9540 -88.2520 208° Southwest 408 470 27,200 1,500 Climbing FlightAware
12:33PM 40.9010 -88.2890 208° Southwest 413 475 28,000 1,440 Climbing FlightAware
12:34PM 40.8320 -88.3370 208° Southwest 419 482 28,900 1,500 Climbing FlightAware
12:34PM 40.7700 -88.3790 207° Southwest 419 482 29,900 900 Climbing FlightAware
12:35PM 40.7110 -88.4190 207° Southwest 423 487 30,000 840 Climbing FlightAware
12:35PM 40.6530 -88.4590 208° Southwest 423 487 30,900 1,560 Climbing FlightAware
12:36PM 40.5960 -88.4980 207° Southwest 420 483 31,800 960 Climbing FlightAware
12:37PM 40.5370 -88.5380 207° Southwest 421 484 32,000 120 Climbing FlightAware
12:37PM 40.4710 -88.5830 207° Southwest 420 483 32,000  Level FlightAware
12:38PM 40.4210 -88.6170 207° Southwest 420 483 32,000 360 Level FlightAware
12:38PM 40.3540 -88.6620 207° Southwest 421 484 32,400 900 Climbing FlightAware
12:39PM 40.2990 -88.6990 207° Southwest 419 482 33,100 1,320 Climbing FlightAware
12:39PM 40.2420 -88.7380 208° Southwest 413 475 33,900 960 Climbing FlightAware
12:40PM 40.1800 -88.7800 207° Southwest 408 470 34,300 1,020 Climbing FlightAware
12:41PM 40.1240 -88.8170 207° Southwest 405 466 35,100 1,320 Climbing FlightAware
12:41PM 40.0710 -88.8530 207° Southwest 401 461 35,800 900 Climbing FlightAware
12:42PM 40.0280 -88.8820 207° Southwest 400 460 36,000 120 Climbing FlightAware
12:42PM 39.9540 -88.9310 207° Southwest 400 460 36,000  Level FlightAware
12:43PM 39.9030 -88.9650 207° Southwest 401 461 36,000  Level FlightAware
12:43PM 39.8620 -88.9930 208° Southwest 401 461 36,000  Level FlightAware
12:44PM 39.7960 -89.0370 207° Southwest 402 463 36,000  Level FlightAware
12:44PM 39.7410 -89.0730 207° Southwest 401 461 36,000  Level FlightAware
12:45PM 39.6850 -89.1100 207° Southwest 401 461 36,000  Level FlightAware
12:46PM 39.6340 -89.1440 207° Southwest 402 463 36,000  Level FlightAware
12:46PM 39.5540 -89.1970 207° Southwest 402 463 36,000  Level FlightAware
12:47PM 39.4960 -89.2350 207° Southwest 402 463 36,000  Level FlightAware
12:47PM 39.4400 -89.2720 207° Southwest 402 463 36,000  Level FlightAware
12:48PM 39.3740 -89.3150 207° Southwest 402 463 36,000  Level FlightAware
12:49PM 39.3110 -89.3560 207° Southwest 402 463 36,000  Level FlightAware
12:49PM 39.2480 -89.3970 207° Southwest 401 461 36,000  Level FlightAware
12:50PM 39.2030 -89.4270 207° Southwest 400 460 36,000  Level FlightAware
12:50PM 39.1460 -89.4630 206° Southwest 399 459 36,000  Level FlightAware
12:51PM 39.1060 -89.4900 208° Southwest 399 459 36,000  Level FlightAware
12:51PM 39.0420 -89.5310 206° Southwest 398 458 36,000  Level FlightAware
12:52PM 38.9850 -89.5680 207° Southwest 398 458 36,000  Level FlightAware
12:53PM 38.9310 -89.6030 207° Southwest 398 458 36,000  Level FlightAware
12:53PM 38.8630 -89.6470 207° Southwest 398 458 36,000  Level FlightAware
12:54PM 38.8000 -89.6870 206° Southwest 399 459 36,000  Level FlightAware
12:55PM 38.7350 -89.7290 207° Southwest 400 460 36,000  Level FlightAware
12:55PM 38.6720 -89.7690 206° Southwest 401 461 36,000  Level FlightAware
12:56PM 38.6130 -89.8070 207° Southwest 402 463 36,000  Level FlightAware
12:56PM 38.5550 -89.8440 207° Southwest 401 461 36,000  Level FlightAware
12:57PM 38.4960 -89.8820 207° Southwest 401 461 36,000  Level FlightAware
12:58PM 38.4400 -89.9170 206° Southwest 400 460 36,000  Level FlightAware
12:58PM 38.3930 -89.9470 207° Southwest 398 458 36,000  Level FlightAware
12:59PM 38.3330 -89.9850 206° Southwest 396 456 36,000  Level FlightAware
12:59PM 38.2860 -90.0150 207° Southwest 395 455 36,000  Level FlightAware
01:00PM 38.2350 -90.0470 206° Southwest 395 455 36,000  Level FlightAware
01:00PM 38.1700 -90.0880 206° Southwest 395 455 36,000  Level FlightAware
01:01PM 38.1150 -90.1230 207° Southwest 395 455 36,000  Level FlightAware
01:01PM 38.0620 -90.1560 206° Southwest 396 456 36,000  Level FlightAware
01:02PM 38.0020 -90.1940 207° Southwest 397 457 36,000  Level FlightAware
01:03PM 37.9420 -90.2320 207° Southwest 398 458 36,000  Level FlightAware
01:03PM 37.8920 -90.2630 206° Southwest 398 458 36,000  Level FlightAware
01:04PM 37.8340 -90.2990 206° Southwest 398 458 36,000  Level FlightAware
01:04PM 37.7700 -90.3390 206° Southwest 398 458 36,000  Level FlightAware
01:05PM 37.7220 -90.3690 206° Southwest 399 459 36,000  Level FlightAware
01:05PM 37.6690 -90.4020 206° Southwest 398 458 36,000  Level FlightAware
01:06PM 37.6120 -90.4370 206° Southwest 399 459 36,000  Level FlightAware
01:06PM 37.5560 -90.4720 206° Southwest 399 459 36,000  Level FlightAware
01:07PM 37.4890 -90.5130 206° Southwest 400 460 36,000  Level FlightAware
01:08PM 37.4390 -90.5440 206° Southwest 402 463 36,000 660 Level FlightAware
01:08PM 37.3840 -90.5780 206° Southwest 397 457 36,700 1,320 Climbing FlightAware
01:09PM 37.3210 -90.6170 206° Southwest 385 443 37,600 1,020 Climbing FlightAware
01:09PM 37.2620 -90.6530 206° Southwest 385 443 38,000 300 Climbing FlightAware
01:10PM 37.2070 -90.6870 206° Southwest 390 449 38,000  Level FlightAware
01:11PM 37.1530 -90.7200 206° Southwest 391 450 38,000  Level FlightAware
01:11PM 37.0970 -90.7540 206° Southwest 391 450 38,000  Level FlightAware
01:12PM 37.0380 -90.7900 206° Southwest 391 450 38,000  Level FlightAware
01:12PM 36.9770 -90.8270 206° Southwest 392 451 38,000  Level FlightAware
01:13PM 36.9200 -90.8610 205° Southwest 392 451 38,000  Level FlightAware
01:14PM 36.8610 -90.8980 207° Southwest 390 449 38,000  Level FlightAware
01:14PM 36.8050 -90.9310 205° Southwest 390 449 38,000  Level FlightAware
01:15PM 36.7540 -90.9630 207° Southwest 388 447 38,000  Level FlightAware
01:15PM 36.7030 -90.9930 205° Southwest 387 445 38,000  Level FlightAware
01:16PM 36.6380 -91.0320 206° Southwest 385 443 38,000  Level FlightAware
01:16PM 36.5800 -91.0670 206° Southwest 383 441 38,000  Level FlightAware
01:17PM 36.5220 -91.1020 206° Southwest 381 438 38,000  Level FlightAware
01:18PM 36.4720 -91.1320 206° Southwest 377 434 38,000  Level FlightAware
01:18PM 36.4210 -91.1620 205° Southwest 376 433 38,000  Level FlightAware
01:19PM 36.3680 -91.1940 206° Southwest 375 432 38,000  Level FlightAware
01:19PM 36.3030 -91.2330 206° Southwest 373 429 38,000  Level FlightAware
01:20PM 36.2530 -91.2630 206° Southwest 373 429 38,000  Level FlightAware
01:20PM 36.2070 -91.2900 205° Southwest 373 429 38,000  Level FlightAware
01:21PM 36.1480 -91.3250 206° Southwest 375 432 38,000  Level FlightAware
01:22PM 36.0880 -91.3610 206° Southwest 375 432 38,000  Level FlightAware
01:22PM 36.0400 -91.3890 205° Southwest 376 433 38,000  Level FlightAware
01:23PM 35.9760 -91.4270 206° Southwest 379 436 38,000  Level FlightAware
01:23PM 35.9270 -91.4560 206° Southwest 380 437 38,000  Level FlightAware
01:24PM 35.8650 -91.4930 206° Southwest 380 437 38,000  Level FlightAware
01:25PM 35.8120 -91.5240 205° Southwest 379 436 38,000  Level FlightAware
01:25PM 35.7460 -91.5630 206° Southwest 378 435 38,000  Level FlightAware
01:26PM 35.6920 -91.5940 205° Southwest 377 434 38,000  Level FlightAware
01:27PM 35.6230 -91.6350 206° Southwest 377 434 38,000  Level FlightAware
01:27PM 35.5660 -91.6680 205° Southwest 377 434 38,000  Level FlightAware
01:28PM 35.5170 -91.6970 206° Southwest 377 434 38,000  Level FlightAware
01:28PM 35.4580 -91.7310 205° Southwest 376 433 38,000  Level FlightAware
01:29PM 35.4060 -91.7610 205° Southwest 376 433 38,000  Level FlightAware
01:29PM 35.3480 -91.7950 206° Southwest 375 432 38,000  Level FlightAware
01:30PM 35.2900 -91.8280 205° Southwest 373 429 38,000  Level FlightAware
01:31PM 35.2400 -91.8580 206° Southwest 372 428 38,000  Level FlightAware
01:31PM 35.1880 -91.8870 205° Southwest 370 426 38,000  Level FlightAware
01:32PM 35.1390 -91.9160 206° Southwest 370 426 38,000  Level FlightAware
01:32PM 35.0790 -91.9510 206° Southwest 370 426 38,000  Level FlightAware
01:33PM 35.0340 -91.9760 204° Southwest 372 428 38,000  Level FlightAware
01:33PM 34.9760 -92.0100 206° Southwest 372 428 38,000  Level FlightAware
01:34PM 34.9220 -92.0410 205° Southwest 373 429 38,000  Level FlightAware
01:35PM 34.8680 -92.0720 205° Southwest 374 430 38,000  Level FlightAware
01:35PM 34.8170 -92.1010 205° Southwest 374 430 38,000  Level FlightAware
01:36PM 34.7490 -92.1400 205° Southwest 375 432 38,000  Level FlightAware
01:36PM 34.6990 -92.1680 205° Southwest 378 435 38,000  Level FlightAware
01:37PM 34.6490 -92.1860 196° South 393 452 38,000  Level FlightAware
01:37PM 34.6000 -92.1960 190° South 398 458 38,000  Level FlightAware
01:38PM 34.5370 -92.2070 188° South 398 458 38,000  Level FlightAware
01:39PM 34.4750 -92.2190 189° South 394 453 38,000  Level FlightAware
01:39PM 34.4100 -92.2310 189° South 391 450 38,000  Level FlightAware
01:40PM 34.3440 -92.2430 189° South 391 450 38,000  Level FlightAware
01:40PM 34.2910 -92.2530 189° South 392 451 38,000  Level FlightAware
01:41PM 34.2120 -92.2680 189° South 392 451 38,000  Level FlightAware
01:42PM 34.1480 -92.2800 189° South 392 451 38,000  Level FlightAware
01:42PM 34.0860 -92.2920 189° South 392 451 38,000  Level FlightAware
01:43PM 34.0310 -92.3020 189° South 392 451 38,000  Level FlightAware
01:43PM 33.9740 -92.3120 188° South 392 451 38,000  Level FlightAware
01:44PM 33.9180 -92.3210 188° South 392 451 38,000  Level FlightAware
01:44PM 33.8390 -92.3380 190° South 672 773 38,000  Level FlightAware
01:45PM 33.7410 -92.3560 189° South 391 450 38,000  Level FlightAware
01:46PM 33.6690 -92.3690 189° South 390 449 38,000  Level FlightAware
01:47PM 33.5850 -92.3850 189° South 389 448 38,000  Level FlightAware
01:48PM 33.5070 -92.3990 189° South 388 447 38,000  Level FlightAware
01:48PM 33.4570 -92.4080 189° South 384 442 38,000  Level FlightAware
01:49PM 33.3940 -92.4200 189° South 383 441 38,000  Level FlightAware
01:49PM 33.3320 -92.4310 188° South 381 438 38,000  Level FlightAware
01:50PM 33.2730 -92.4420 189° South 380 437 38,000  Level FlightAware
01:50PM 33.2140 -92.4530 189° South 380 437 38,000  Level FlightAware
01:51PM 33.1540 -92.4640 189° South 380 437 38,000  Level FlightAware
01:52PM 33.0970 -92.4750 189° South 381 438 38,000  Level FlightAware
01:52PM 33.0440 -92.4850 189° South 381 438 38,000  Level FlightAware
01:53PM 32.9860 -92.4960 189° South 381 438 38,000  Level FlightAware
01:53PM 32.9330 -92.5060 189° South 381 438 38,000  Level FlightAware
01:54PM 32.8780 -92.5160 189° South 381 438 38,000  Level FlightAware
01:55PM 32.8250 -92.5260 189° South 381 438 38,000  Level FlightAware
01:55PM 32.7720 -92.5360 189° South 381 438 38,000  Level FlightAware
01:56PM 32.6410 -92.5570 188° South 389 448 38,000  Level FlightAware
01:56PM 32.5930 -92.5660 189° South 388 447 38,000  Level FlightAware
01:57PM 32.5260 -92.5780 189° South 383 441 38,000  Level FlightAware
01:57PM 32.4760 -92.5870 189° South 382 440 38,000  Level FlightAware
01:58PM 32.4060 -92.6000 189° South 382 440 38,000  Level FlightAware
01:59PM 32.3430 -92.6110 188° South 382 440 38,000  Level FlightAware
01:59PM 32.2820 -92.6220 189° South 382 440 38,000  Level FlightAware
02:00PM 32.2350 -92.6300 188° South 382 440 38,000  Level FlightAware
02:02PM 32.1760 -92.6410 189° South 382 440 38,000  Level FlightAware
02:02PM 32.1230 -92.6510 189° South 382 440 38,000  Level FlightAware
02:03PM 32.0680 -92.6620 190° South 382 440 38,000  Level FlightAware
02:03PM 32.0140 -92.6720 189° South 382 440 38,000  Level FlightAware
02:04PM 31.9610 -92.6820 189° South 382 440 38,000  Level FlightAware
02:05PM 31.9100 -92.6910 189° South 382 440 38,000  Level FlightAware
02:05PM 31.8540 -92.7010 189° South 382 440 38,000  Level FlightAware
02:06PM 31.8010 -92.7110 189° South 382 440 38,000  Level FlightAware
02:06PM 31.7070 -92.9360 244° Southwest 38,000  Level FlightAware
02:06PM 31.6980 -92.9440 217° Southwest 348 400 38,000  Level FlightAware
02:07PM 31.6350 -93.0050 220° Southwest 348 400 38,000  Level FlightAware
02:08PM 31.5990 -93.0390 219° Southwest 348 400 38,000  Level FlightAware
02:08PM 31.5430 -93.0930 219° Southwest 348 400 38,000  Level FlightAware
02:09PM 31.5050 -93.1290 219° Southwest 348 400 38,000  Level FlightAware
02:09PM 31.4660 -93.1660 219° Southwest 348 400 38,000  Level FlightAware
02:10PM 31.4280 -93.2020 219° Southwest 348 400 38,000  Level FlightAware
02:11PM 31.3900 -93.2380 219° Southwest 348 400 38,000  Level FlightAware
02:11PM 31.3110 -93.3160 220° Southwest 38,000  Level FlightAware
02:13PM 31.1910 -93.4290 219° Southwest 38,000  Level FlightAware
02:13PM 31.1340 -93.4840 220° Southwest 357 411 38,000  Level FlightAware
02:14PM 31.0870 -93.5280 219° Southwest 357 411 38,000  Level FlightAware
02:15PM 31.0480 -93.5650 219° Southwest 357 411 38,000  Level FlightAware
02:15PM 31.0080 -93.6030 219° Southwest 357 411 38,000  Level FlightAware
02:16PM 30.9650 -93.6440 219° Southwest 357 411 38,000  Level FlightAware
02:17PM 30.9260 -93.6810 219° Southwest 357 411 38,000  Level FlightAware
02:17PM 30.8850 -93.7190 219° Southwest 357 411 38,000  Level FlightAware
02:18PM 30.8460 -93.7560 219° Southwest 357 411 38,000  Level FlightAware
02:19PM 30.8060 -93.7940 219° Southwest 357 411 38,000 -10,980 Level FlightAware
02:19PM 30.6670 -93.9250 219° Southwest 382 440 25,200 -10,680 Descending FlightAware
02:20PM 30.6210 -93.9680 219° Southwest 382 440 25,200  Level FlightAware
02:20PM 30.5790 -94.0070 219° Southwest 382 440 25,200 -4,200 Level FlightAware
02:21PM 30.5150 -94.0670 219° Southwest 386 444 20,400 -4,440 Descending FlightAware
02:22PM 30.4680 -94.1120 220° Southwest 389 448 19,900 -420 Descending FlightAware
02:22PM 30.4250 -94.1520 219° Southwest 389 448 19,900  Level FlightAware
02:23PM 30.3820 -94.1920 219° Southwest 389 448 19,900  Level FlightAware
02:23PM 30.3390 -94.2320 219° Southwest 389 448 19,900  Level FlightAware
02:24PM 30.2960 -94.2720 219° Southwest 389 448 19,900  Level FlightAware
02:25PM 30.2540 -94.3130 220° Southwest 389 448 19,900 -3,180 Level FlightAware
02:27PM 30.1710 -94.5190 245° Southwest 295 339 11,700 -3,360 Descending FlightAware
02:27PM 30.1610 -94.5770 259° West 297 342 11,200 -600 Descending FlightAware
02:28PM 30.1520 -94.6250 258° West 298 343 11,000 -180 Descending FlightAware
02:28PM 30.1440 -94.6730 259° West 298 343 11,000  Level FlightAware
02:29PM 30.1350 -94.7220 258° West 298 343 11,000 -1,980 Level FlightAware
02:30PM 30.1230 -94.7970 260° West 267 307 8,500 -2,100 Descending FlightAware
02:30PM 30.1170 -94.8340 259° West 267 307 8,400 -1,140 Descending FlightAware
02:30PM 30.1107 -94.8690 258° West 264 304 7,600 -2,100 Descending FlightAware ADS-B
02:31PM 30.1066 -94.8950 260° West 266 306 7,300 -1,080 Descending FlightAware ADS-B
02:31PM 30.1052 -94.9252 267° West 266 306 6,900 -1,080 Descending FlightAware ADS-B
02:31PM 30.1054 -94.9529 270° West 266 306 6,600 -900 Descending FlightAware ADS-B
02:32PM 30.1054 -94.9705 270° West 266 306 6,400 -900 Descending FlightAware ADS-B
02:32PM 30.1057 -95.0094 271° West 266 306 6,000 -780 Descending FlightAware ADS-B
02:32PM 30.1058 -95.0306 270° West 267 307 5,900 -120 Descending FlightAware ADS-B
02:33PM 30.1060 -95.0740 270° West 266 306 5,900  Level FlightAware
02:33PM 30.1060 -95.1050 270° West 265 305 5,900  Level FlightAware
02:34PM 30.1060 -95.1330 270° West 265 305 5,900  Level FlightAware
02:34PM 30.1060 -95.1690 270° West 265 305 5,900  Level FlightAware
02:34PM 30.1060 -95.2030 270° West 259 298 5,900  Level FlightAware
02:35PM 30.1060 -95.2300 270° West 262 302 5,900  Level FlightAware
02:35PM 30.1070 -95.2570 272° West 265 305 5,900  Level FlightAware
02:35PM 30.1070 -95.2880 270° West 264 304 5,900  Level FlightAware
02:36PM 30.1070 -95.3010 270° West 264 304 5,900  Level FlightAware
02:36PM 30.1070 -95.3390 270° West 263 303 5,900 -660 Level FlightAware
02:37PM 30.1070 -95.3850 270° West 265 305 5,300 -1,380 Descending FlightAware
02:37PM 30.1070 -95.4090 270° West 267 307 4,800 -1,620 Descending FlightAware
02:37PM 30.1070 -95.4510 270° West 268 308 4,100 -900 Descending FlightAware
02:38PM 30.1060 -95.4920 268° West 267 307 3,900 -480 Descending FlightAware
02:40PM 29.9990 -95.5397 201° Southwest 212 244 3,000 -540 Descending FlightAware ADS-B
02:40PM 29.9920 -95.5070 104° East 210 242 2,600 -420 Descending FlightAware
02:41PM 29.9930 -95.4810 87° East 210 242 2,600 -1,080 Level FlightAware
02:42PM 29.9925 -95.4267 87° East 197 227 1,300 -1,380 Descending Houston Center
02:42PM 29.9947 -95.4164 76° East 207 238 1,100 -900 Descending Houston Center
02:43PM 29.9917 -95.3736 95° East 149 171 400 -720 Descending Houston Center
02:43PM 29.9956 -95.3572 75° East 192 221 400  Level Houston Center